createdAt,value
2019-04-01T00:02:10.107Z,102948.80
2019-04-01T00:04:37.304Z,102955.47
2019-04-01T00:07:04.622Z,102952.80
2019-04-01T00:09:31.827Z,102954.33
2019-04-01T00:11:59.062Z,102953.20
2019-04-01T00:14:26.395Z,102954.11
2019-04-01T00:16:53.657Z,102954.30
2019-04-01T00:19:20.917Z,102957.30
2019-04-01T00:21:48.189Z,102951.17
2019-04-01T00:24:15.545Z,102947.44
2019-04-01T00:26:42.863Z,102948.23
2019-04-01T00:29:10.132Z,102949.23
2019-04-01T00:31:37.392Z,102951.53
2019-04-01T00:34:04.632Z,102955.14
2019-04-01T00:36:31.939Z,102951.66
2019-04-01T00:38:59.183Z,102944.68
2019-04-01T00:41:26.401Z,102945.20
2019-04-01T00:43:55.529Z,102946.38
2019-04-01T00:46:23.106Z,102941.68
2019-04-01T00:48:50.437Z,102943.58
2019-04-01T00:51:17.634Z,102945.59
2019-04-01T00:53:44.938Z,102941.49
2019-04-01T00:56:12.220Z,102938.49
2019-04-01T00:58:39.445Z,102940.92
2019-04-01T01:01:06.923Z,102942.88
2019-04-01T01:03:34.154Z,102934.94
2019-04-01T01:06:01.421Z,102938.05
2019-04-01T01:08:28.678Z,102935.97
2019-04-01T01:10:55.958Z,102936.24
2019-04-01T01:13:23.201Z,102939.48
2019-04-01T01:15:50.430Z,102935.69
2019-04-01T01:18:17.703Z,102935.13
2019-04-01T01:20:44.971Z,102936.61
2019-04-01T01:23:12.279Z,102933.84
2019-04-01T01:25:39.539Z,102932.82
2019-04-01T01:28:06.780Z,102928.79
2019-04-01T01:30:34.058Z,102925.98
2019-04-01T01:33:01.297Z,102927.69
2019-04-01T01:35:28.654Z,102929.55
2019-04-01T01:37:55.899Z,102924.48
2019-04-01T01:40:23.171Z,102932.89
2019-04-01T01:42:50.472Z,102933.20
2019-04-01T01:45:17.710Z,102928.30
2019-04-01T01:47:44.953Z,102928.38
2019-04-01T01:50:12.595Z,102931.37
2019-04-01T01:52:39.822Z,102925.25
2019-04-01T01:55:07.445Z,102920.22
2019-04-01T01:57:34.785Z,102918.20
2019-04-01T02:00:02.151Z,102910.63
2019-04-01T02:02:29.414Z,102911.30
2019-04-01T02:04:56.691Z,102907.31
2019-04-01T02:07:23.913Z,102908.64
2019-04-01T02:09:51.201Z,102911.30
2019-04-01T02:12:18.512Z,102897.70
2019-04-01T02:14:45.799Z,102904.36
2019-04-01T02:17:13.053Z,102903.50
2019-04-01T02:19:40.369Z,102909.04
2019-04-01T02:22:07.676Z,102898.83
2019-04-01T02:24:34.990Z,102900.04
2019-04-01T02:27:02.243Z,102897.67
2019-04-01T02:29:29.495Z,102897.87
2019-04-01T02:31:56.781Z,102894.42
2019-04-01T02:34:23.994Z,102895.35
2019-04-01T02:36:51.254Z,102894.92
2019-04-01T02:39:18.548Z,102890.47
2019-04-01T02:41:45.829Z,102883.84
2019-04-01T02:44:13.039Z,102888.50
2019-04-01T02:46:40.310Z,102889.89
2019-04-01T02:49:07.525Z,102890.28
2019-04-01T02:51:34.787Z,102891.54
2019-04-01T02:54:02.228Z,102877.57
2019-04-01T02:56:29.488Z,102880.23
2019-04-01T02:58:56.854Z,102882.29
2019-04-01T03:01:24.154Z,102876.89
2019-04-01T03:03:51.414Z,102872.20
2019-04-01T03:06:18.621Z,102862.02
2019-04-01T03:08:45.985Z,102868.89
2019-04-01T03:11:13.274Z,102866.60
2019-04-01T03:13:40.539Z,102861.03
2019-04-01T03:16:07.771Z,102857.57
2019-04-01T03:18:35.045Z,102859.70
2019-04-01T03:21:02.305Z,102862.31
2019-04-01T03:23:30.013Z,102856.67
2019-04-01T03:25:57.320Z,102858.53
2019-04-01T03:28:24.612Z,102860.81
2019-04-01T03:30:52.108Z,102862.39
2019-04-01T03:33:19.445Z,102852.71
2019-04-01T03:35:46.677Z,102855.05
2019-04-01T03:38:13.908Z,102852.45
2019-04-01T03:40:41.209Z,102857.61
2019-04-01T03:43:08.434Z,102863.47
2019-04-01T03:45:35.658Z,102859.41
2019-04-01T03:48:03.053Z,102863.16
2019-04-01T03:50:30.486Z,102858.06
2019-04-01T03:52:57.717Z,102864.86
2019-04-01T03:55:25.020Z,102857.75
2019-04-01T03:57:52.277Z,102861.39
2019-04-01T04:00:19.531Z,102858.30
2019-04-01T04:02:46.842Z,102862.82
2019-04-01T04:05:14.056Z,102858.78
2019-04-01T04:07:41.277Z,102865.47
2019-04-01T04:10:08.796Z,102854.48
2019-04-01T04:12:36.024Z,102862.49
2019-04-01T04:15:03.556Z,102865.61
2019-04-01T04:17:30.872Z,102861.37
2019-04-01T04:19:58.119Z,102861.70
2019-04-01T04:22:25.474Z,102859.55
2019-04-01T04:24:52.875Z,102850.11
2019-04-01T04:27:20.215Z,102857.49
2019-04-01T04:29:47.414Z,102851.25
2019-04-01T04:32:15.408Z,102856.87
2019-04-01T04:34:42.707Z,102860.06
2019-04-01T04:37:09.949Z,102852.86
2019-04-01T04:39:37.240Z,102852.60
2019-04-01T04:42:04.495Z,102854.01
2019-04-01T04:44:31.732Z,102854.97
2019-04-01T04:46:58.977Z,102848.72
2019-04-01T04:49:26.306Z,102853.83
2019-04-01T04:51:53.674Z,102843.27
2019-04-01T04:54:20.927Z,102847.73
2019-04-01T04:56:48.273Z,102842.77
2019-04-01T04:59:15.554Z,102844.59
2019-04-01T05:01:42.845Z,102838.88
2019-04-01T05:04:10.127Z,102838.71
2019-04-01T05:06:37.381Z,102837.02
2019-04-01T05:09:05.998Z,102836.79
2019-04-01T05:11:33.305Z,102836.34
2019-04-01T05:14:00.621Z,102834.92
2019-04-01T05:16:27.842Z,102838.09
2019-04-01T05:18:55.096Z,102834.58
2019-04-01T05:21:22.582Z,102837.30
2019-04-01T05:23:51.275Z,102834.03
2019-04-01T05:26:20.592Z,102831.53
2019-04-01T05:28:48.728Z,102828.48
2019-04-01T05:31:18.748Z,102831.82
2019-04-01T05:33:55.624Z,102831.66
2019-04-01T05:36:21.145Z,102828.59
2019-04-01T05:38:48.395Z,102825.59
2019-04-01T05:41:16.161Z,102830.78
2019-04-01T05:43:43.375Z,102835.31
2019-04-01T05:46:11.061Z,102846.50
2019-04-01T05:48:38.345Z,102839.84
2019-04-01T05:51:05.624Z,102845.48
2019-04-01T05:53:32.860Z,102843.22
2019-04-01T05:56:00.152Z,102846.97
2019-04-01T05:58:27.511Z,102843.88
2019-04-01T06:01:01.214Z,102843.37
2019-04-01T06:03:28.638Z,102843.89
2019-04-01T06:05:56.067Z,102848.39
2019-04-01T06:08:23.287Z,102846.89
2019-04-01T06:10:51.200Z,102844.44
2019-04-01T06:13:18.447Z,102842.78
2019-04-01T06:15:45.703Z,102840.19
2019-04-01T06:18:12.988Z,102845.36
2019-04-01T06:20:40.221Z,102844.36
2019-04-01T06:23:07.583Z,102843.73
2019-04-01T06:25:34.947Z,102839.33
2019-04-01T06:28:02.282Z,102836.00
2019-04-01T06:30:29.795Z,102829.03
2019-04-01T06:32:57.222Z,102823.74
2019-04-01T06:35:24.536Z,102834.70
2019-04-01T06:37:54.601Z,102830.06
2019-04-01T06:40:21.844Z,102828.78
2019-04-01T06:42:49.210Z,102824.03
2019-04-01T06:45:16.593Z,102817.39
2019-04-01T06:47:43.904Z,102819.53
2019-04-01T06:50:11.529Z,102818.92
2019-04-01T06:52:38.770Z,102820.89
2019-04-01T06:55:06.188Z,102820.13
2019-04-01T06:57:33.744Z,102814.51
2019-04-01T07:00:01.065Z,102823.50
2019-04-01T07:02:28.319Z,102818.58
2019-04-01T07:04:55.798Z,102820.40
2019-04-01T07:07:23.019Z,102817.79
2019-04-01T07:09:50.933Z,102812.16
2019-04-01T07:12:18.292Z,102810.24
2019-04-01T07:14:45.624Z,102811.53
2019-04-01T07:17:13.038Z,102809.13
2019-04-01T07:19:40.256Z,102807.36
2019-04-01T07:22:07.810Z,102804.66
2019-04-01T07:24:35.079Z,102808.24
2019-04-01T07:27:02.427Z,102806.24
2019-04-01T07:29:29.678Z,102796.48
2019-04-01T07:31:56.960Z,102793.58
2019-04-01T07:34:24.367Z,102798.34
2019-04-01T07:36:51.709Z,102794.50
2019-04-01T07:39:19.246Z,102802.91
2019-04-01T07:41:46.492Z,102796.31
2019-04-01T07:44:13.927Z,102799.52
2019-04-01T07:46:41.486Z,102803.67
2019-04-01T07:49:08.867Z,102797.80
2019-04-01T07:51:38.418Z,102792.59
2019-04-01T07:54:05.366Z,102789.60
2019-04-01T07:56:32.749Z,102785.87
2019-04-01T07:59:00.000Z,102776.28
2019-04-01T08:01:27.608Z,102776.28
2019-04-01T08:03:54.855Z,102782.91
2019-04-01T08:06:22.250Z,102773.53
2019-04-01T08:08:49.505Z,102770.28
2019-04-01T08:11:16.994Z,102773.36
2019-04-01T08:13:44.240Z,102770.53
2019-04-01T08:16:11.536Z,102770.99
2019-04-01T08:18:39.181Z,102762.64
2019-04-01T08:21:06.534Z,102760.25
2019-04-01T08:23:33.935Z,102772.16
2019-04-01T08:26:01.355Z,102778.26
2019-04-01T08:28:28.664Z,102763.35
2019-04-01T08:30:55.915Z,102763.47
2019-04-01T08:33:23.229Z,102754.25
2019-04-01T08:35:50.459Z,102756.53
2019-04-01T08:38:17.900Z,102759.27
2019-04-01T08:40:45.330Z,102751.19
2019-04-01T08:43:12.961Z,102748.76
2019-04-01T08:45:40.453Z,102749.05
2019-04-01T08:48:07.701Z,102739.03
2019-04-01T08:50:35.082Z,102741.16
2019-04-01T08:53:02.403Z,102738.09
2019-04-01T08:55:29.655Z,102723.94
2019-04-01T08:57:56.923Z,102728.12
2019-04-01T09:00:24.337Z,102718.11
2019-04-01T09:02:51.709Z,102712.00
2019-04-01T09:05:21.587Z,102707.78
2019-04-01T09:07:49.656Z,102707.78
2019-04-01T09:10:16.971Z,102714.13
2019-04-01T09:12:44.722Z,102714.75
2019-04-01T09:15:12.357Z,102712.53
2019-04-01T09:17:40.516Z,102704.80
2019-04-01T09:20:08.246Z,102704.80
2019-04-01T09:22:35.579Z,102695.84
2019-04-01T09:25:03.346Z,102696.13
2019-04-01T09:27:30.712Z,102696.13
2019-04-01T09:29:58.009Z,102697.64
2019-04-01T09:32:25.242Z,102690.91
2019-04-01T09:34:52.523Z,102691.72
2019-04-01T09:37:19.771Z,102693.63
2019-04-01T09:39:47.013Z,102677.56
2019-04-01T09:42:14.308Z,102677.56
2019-04-01T09:44:41.533Z,102683.00
2019-04-01T09:47:08.835Z,102673.20
2019-04-01T09:49:36.094Z,102674.72
2019-04-01T09:52:03.930Z,102665.77
2019-04-01T09:54:31.452Z,102665.77
2019-04-01T09:56:58.719Z,102655.96
2019-04-01T09:59:26.073Z,102655.58
2019-04-01T10:01:53.440Z,102655.16
2019-04-01T10:04:20.666Z,102647.91
2019-04-01T10:06:47.906Z,102642.28
2019-04-01T10:09:15.189Z,102636.37
2019-04-01T10:11:42.424Z,102624.96
2019-04-01T10:14:09.685Z,102627.85
2019-04-01T10:16:37.027Z,102623.98
2019-04-01T10:19:07.317Z,102618.91
2019-04-01T10:21:34.612Z,102619.81
2019-04-01T10:24:01.880Z,102621.66
2019-04-01T10:26:30.468Z,102609.25
2019-04-01T10:28:57.842Z,102615.50
2019-04-01T10:31:25.065Z,102607.25
2019-04-01T10:33:52.421Z,102602.77
2019-04-01T10:36:19.677Z,102601.59
2019-04-01T10:38:47.160Z,102606.13
2019-04-01T10:41:14.439Z,102596.97
2019-04-01T10:43:41.704Z,102602.17
2019-04-01T10:46:12.088Z,102593.55
2019-04-01T10:48:38.138Z,102586.91
2019-04-01T10:51:05.499Z,102583.83
2019-04-01T10:53:32.763Z,102583.97
2019-04-01T10:56:00.175Z,102576.48
2019-04-01T10:58:27.576Z,102573.81
2019-04-01T11:00:54.804Z,102574.03
2019-04-01T11:03:22.269Z,102566.06
2019-04-01T11:05:49.612Z,102564.80
2019-04-01T11:08:17.017Z,102557.59
2019-04-01T11:10:45.408Z,102551.63
2019-04-01T11:13:12.790Z,102546.34
2019-04-01T11:15:40.013Z,102545.70
2019-04-01T11:18:07.259Z,102538.63
2019-04-01T11:20:34.523Z,102537.14
2019-04-01T11:23:02.791Z,102532.33
2019-04-01T11:25:30.886Z,102525.55
2019-04-01T11:27:58.206Z,102526.91
2019-04-01T11:30:25.457Z,102507.55
2019-04-01T11:32:52.704Z,102514.30
2019-04-01T11:35:20.010Z,102506.39
2019-04-01T11:37:47.282Z,102501.63
2019-04-01T11:40:14.601Z,102499.80
2019-04-01T11:42:41.964Z,102498.47
2019-04-01T11:45:09.630Z,102495.25
2019-04-01T11:47:36.925Z,102485.34
2019-04-01T11:50:04.865Z,102487.59
2019-04-01T11:52:32.119Z,102489.27
2019-04-01T11:54:59.349Z,102478.53
2019-04-01T11:57:26.659Z,102488.34
2019-04-01T11:59:53.909Z,102474.51
2019-04-01T12:02:21.479Z,102478.30
2019-04-01T12:04:49.175Z,102474.67
2019-04-01T12:07:16.429Z,102467.43
2019-04-01T12:09:43.721Z,102455.19
2019-04-01T12:12:22.870Z,102452.95
2019-04-01T12:14:40.083Z,102450.14
2019-04-01T12:17:07.367Z,102448.00
2019-04-01T12:19:34.654Z,102453.59
2019-04-01T12:22:01.915Z,102437.64
2019-04-01T12:24:29.334Z,102431.98
2019-04-01T12:26:56.642Z,102435.88
2019-04-01T12:29:23.914Z,102430.59
2019-04-01T12:31:51.765Z,102427.20
2019-04-01T12:34:19.229Z,102423.00
2019-04-01T12:36:46.483Z,102422.89
2019-04-01T12:39:13.759Z,102419.13
2019-04-01T12:41:41.035Z,102417.87
2019-04-01T12:44:08.261Z,102415.80
2019-04-01T12:46:35.563Z,102400.48
2019-04-01T12:49:03.140Z,102400.85
2019-04-01T12:51:30.586Z,102385.24
2019-04-01T12:53:57.885Z,102387.29
2019-04-01T12:56:25.208Z,102384.56
2019-04-01T12:58:52.503Z,102377.26
2019-04-01T13:01:20.514Z,102374.38
2019-04-01T13:03:48.876Z,102371.73
2019-04-01T13:06:16.391Z,102369.84
2019-04-01T13:08:43.641Z,102354.59
2019-04-01T13:11:10.904Z,102349.56
2019-04-01T13:13:38.167Z,102354.50
2019-04-01T13:16:08.892Z,102340.18
2019-04-01T13:18:37.955Z,102339.02
2019-04-01T13:21:03.789Z,102338.30
2019-04-01T13:23:31.060Z,102338.61
2019-04-01T13:25:58.531Z,102320.75
2019-04-01T13:28:26.147Z,102325.70
2019-04-01T13:30:55.085Z,102313.42
2019-04-01T13:33:22.731Z,102321.24
2019-04-01T13:35:49.980Z,102312.17
2019-04-01T13:38:17.334Z,102310.52
2019-04-01T13:40:44.778Z,102302.23
2019-04-01T13:43:12.482Z,102305.64
2019-04-01T13:45:40.125Z,102284.75
2019-04-01T13:48:07.365Z,102278.94
2019-04-01T13:50:34.600Z,102287.67
2019-04-01T13:53:01.869Z,102271.59
2019-04-01T13:55:29.120Z,102262.50
2019-04-01T13:57:56.366Z,102260.34
2019-04-01T14:00:27.413Z,102257.59
2019-04-01T14:02:53.524Z,102249.61
2019-04-01T14:05:20.865Z,102246.55
2019-04-01T14:07:48.171Z,102246.23
2019-04-01T14:10:15.638Z,102253.34
2019-04-01T14:12:42.967Z,102239.95
2019-04-01T14:15:10.932Z,102228.66
2019-04-01T14:17:38.163Z,102233.16
2019-04-01T14:20:05.871Z,102220.08
2019-04-01T14:22:33.108Z,102227.32
2019-04-01T14:25:00.375Z,102231.61
2019-04-01T14:27:27.681Z,102216.24
2019-04-01T14:29:55.297Z,102208.08
2019-04-01T14:32:22.525Z,102204.25
2019-04-01T14:34:50.471Z,102199.39
2019-04-01T14:37:25.156Z,102189.52
2019-04-01T14:39:47.190Z,102182.73
2019-04-01T14:42:14.469Z,102177.83
2019-04-01T14:44:42.344Z,102174.02
2019-04-01T14:47:09.589Z,102169.64
2019-04-01T14:49:36.905Z,102162.31
2019-04-01T14:52:04.188Z,102159.82
2019-04-01T14:54:31.427Z,102164.22
2019-04-01T14:56:58.737Z,102151.93
2019-04-01T14:59:26.030Z,102151.77
2019-04-01T15:01:53.267Z,102138.16
2019-04-01T15:04:20.570Z,102141.85
2019-04-01T15:06:47.847Z,102152.16
2019-04-01T15:09:15.064Z,102130.86
2019-04-01T15:11:42.361Z,102132.41
2019-04-01T15:14:09.700Z,102128.53
2019-04-01T15:16:36.960Z,102118.23
2019-04-01T15:19:04.225Z,102138.34
2019-04-01T15:21:31.465Z,102113.96
2019-04-01T15:23:58.759Z,102118.41
2019-04-01T15:26:26.014Z,102106.40
2019-04-01T15:28:53.374Z,102132.95
2019-04-01T15:31:20.615Z,102110.86
2019-04-01T15:33:47.907Z,102103.99
2019-04-01T15:38:48.126Z,102095.72
2019-04-01T15:41:16.220Z,102094.48
2019-04-01T15:43:43.877Z,102088.16
2019-04-01T15:46:11.180Z,102083.58
2019-04-01T15:48:38.441Z,102083.29
2019-04-01T15:51:05.695Z,102076.93
2019-04-01T15:53:34.739Z,102073.23
2019-04-01T15:56:02.215Z,102064.48
2019-04-01T15:58:29.464Z,102059.47
2019-04-01T16:00:56.818Z,102061.09
2019-04-01T16:03:24.172Z,102053.51
2019-04-01T16:05:51.426Z,102046.44
2019-04-01T16:08:18.809Z,102043.82
2019-04-01T16:10:46.234Z,102043.28
2019-04-01T16:13:14.282Z,102034.27
2019-04-01T16:15:41.947Z,102033.30
2019-04-01T16:18:09.187Z,102025.50
2019-04-01T16:20:36.410Z,102028.50
2019-04-01T16:23:03.690Z,102020.66
2019-04-01T16:25:31.195Z,102010.33
2019-04-01T16:27:58.584Z,102016.72
2019-04-01T16:30:25.963Z,102013.89
2019-04-01T16:32:53.199Z,102000.83
2019-04-01T16:35:20.464Z,102004.27
2019-04-01T16:37:47.739Z,102005.30
2019-04-01T16:40:15.152Z,101996.36
2019-04-01T16:42:42.422Z,101995.89
2019-04-01T16:45:10.293Z,101984.31
2019-04-01T16:47:37.615Z,101985.48
2019-04-01T16:50:05.894Z,101986.67
2019-04-01T16:52:33.198Z,101988.35
2019-04-01T16:55:02.290Z,101988.98
2019-04-01T16:57:29.514Z,101983.63
2019-04-01T16:59:57.136Z,101978.97
2019-04-01T17:02:24.653Z,101981.69
2019-04-01T17:04:51.945Z,101971.16
2019-04-01T17:07:19.715Z,101971.34
2019-04-01T17:09:47.215Z,101967.69
2019-04-01T17:12:14.459Z,101967.07
2019-04-01T17:14:41.726Z,101961.02
2019-04-01T17:17:09.126Z,101966.55
2019-04-01T17:19:36.540Z,101962.70
2019-04-01T17:22:03.877Z,101959.08
2019-04-01T17:24:31.131Z,101957.71
2019-04-01T17:27:04.679Z,101954.38
2019-04-01T17:29:32.101Z,101950.98
2019-04-01T17:31:59.308Z,101950.98
2019-04-01T17:34:26.610Z,101953.86
2019-04-01T17:36:53.887Z,101952.17
2019-04-01T17:39:21.144Z,101945.16
2019-04-01T17:41:48.808Z,101942.19
2019-04-01T17:44:16.160Z,101943.65
2019-04-01T17:46:43.712Z,101937.25
2019-04-01T17:49:11.029Z,101936.75
2019-04-01T17:51:38.419Z,101934.06
2019-04-01T17:54:05.774Z,101937.97
2019-04-01T17:56:33.054Z,101934.77
2019-04-01T17:59:01.691Z,101936.41
2019-04-01T18:01:29.220Z,101934.91
2019-04-01T18:03:56.469Z,101936.13
2019-04-01T18:06:23.790Z,101929.73
2019-04-01T18:08:51.075Z,101927.97
2019-04-01T18:11:18.332Z,101934.70
2019-04-01T18:13:45.711Z,101923.52
2019-04-01T18:16:14.025Z,101922.55
2019-04-01T18:18:41.541Z,101925.61
2019-04-01T18:21:08.855Z,101927.52
2019-04-01T18:23:36.114Z,101928.08
2019-04-01T18:26:03.475Z,101929.48
2019-04-01T18:28:33.031Z,101924.23
2019-04-01T18:31:00.699Z,101921.77
2019-04-01T18:33:30.349Z,101924.06
2019-04-01T18:35:58.030Z,101925.28
2019-04-01T18:38:25.297Z,101930.65
2019-04-01T18:40:52.549Z,101924.73
2019-04-01T18:43:19.840Z,101931.56
2019-04-01T18:45:47.094Z,101935.11
2019-04-01T18:48:14.887Z,101916.66
2019-04-01T18:50:43.257Z,101922.55
2019-04-01T18:53:10.880Z,101923.13
2019-04-01T18:55:38.205Z,101919.92
2019-04-01T18:58:05.481Z,101917.30
2019-04-01T19:00:32.832Z,101915.47
2019-04-01T19:03:00.092Z,101918.25
2019-04-01T19:05:27.390Z,101911.36
2019-04-01T19:07:54.638Z,101908.72
2019-04-01T19:10:21.889Z,101906.69
2019-04-01T19:12:49.190Z,101911.06
2019-04-01T19:15:16.462Z,101909.09
2019-04-01T19:17:43.717Z,101904.67
2019-04-01T19:20:11.782Z,101908.02
2019-04-01T19:22:40.158Z,101903.06
2019-04-01T19:25:08.146Z,101904.73
2019-04-01T19:27:35.421Z,101895.23
2019-04-01T19:30:03.320Z,101895.23
2019-04-01T19:32:30.637Z,101904.87
2019-04-01T19:34:57.883Z,101898.86
2019-04-01T19:37:27.203Z,101898.86
2019-04-01T19:39:54.333Z,101896.38
2019-04-01T19:42:21.604Z,101881.68
2019-04-01T19:44:48.868Z,101887.89
2019-04-01T19:47:16.212Z,101887.89
2019-04-01T19:49:43.458Z,101887.16
2019-04-01T19:52:10.756Z,101887.16
2019-04-01T19:54:38.019Z,101890.64
2019-04-01T19:57:05.258Z,101892.55
2019-04-01T19:59:35.612Z,101887.89
2019-04-01T20:02:01.806Z,101884.13
2019-04-01T20:04:29.192Z,101890.61
2019-04-01T20:06:56.414Z,101890.61
2019-04-01T20:09:23.675Z,101885.50
2019-04-01T20:11:51.015Z,101887.00
2019-04-01T20:14:18.292Z,101883.77
2019-04-01T20:16:47.153Z,101872.08
2019-04-01T20:19:14.618Z,101872.08
2019-04-01T20:21:41.892Z,101866.94
2019-04-01T20:24:09.248Z,101873.90
2019-04-01T20:26:36.543Z,101864.81
2019-04-01T20:29:04.071Z,101864.81
2019-04-01T20:31:31.328Z,101866.89
2019-04-01T20:33:58.638Z,101853.51
2019-04-01T20:36:28.687Z,101853.30
2019-04-01T20:38:55.273Z,101857.55
2019-04-01T20:41:23.453Z,101850.09
2019-04-01T20:43:50.716Z,101855.41
2019-04-01T20:46:17.989Z,101838.30
2019-04-01T20:48:45.263Z,101838.30
2019-04-01T20:51:12.493Z,101839.89
2019-04-01T20:53:39.885Z,101828.55
2019-04-01T20:56:07.366Z,101828.34
2019-04-01T20:58:34.584Z,101832.28
2019-04-01T21:01:02.047Z,101822.28
2019-04-01T21:03:30.289Z,101802.67
2019-04-01T21:05:58.006Z,101802.67
2019-04-01T21:08:25.230Z,101802.77
2019-04-01T21:10:52.514Z,101804.21
2019-04-01T21:13:19.779Z,101804.34
2019-04-01T21:15:47.023Z,101798.22
2019-04-01T21:18:14.268Z,101797.94
2019-04-01T21:20:42.260Z,101784.50
2019-04-01T21:23:09.770Z,101784.50
2019-04-01T21:25:37.006Z,101788.73
2019-04-01T21:28:04.411Z,101790.76
2019-04-01T21:30:31.706Z,101778.31
2019-04-01T21:32:58.941Z,101775.70
2019-04-01T21:35:26.247Z,101765.88
2019-04-01T21:37:53.484Z,101770.41
2019-04-01T21:40:20.736Z,101759.55
2019-04-01T21:42:48.023Z,101765.60
2019-04-01T21:45:16.305Z,101766.80
2019-04-01T21:47:44.159Z,101760.91
2019-04-01T21:50:11.747Z,101751.64
2019-04-01T21:52:38.996Z,101749.13
2019-04-01T21:55:08.100Z,101749.92
2019-04-01T21:57:35.659Z,101740.99
2019-04-01T22:00:03.480Z,101732.14
2019-04-01T22:02:36.108Z,101729.83
2019-04-01T22:04:59.912Z,101725.83
2019-04-01T22:07:27.144Z,101721.31
2019-04-01T22:09:54.371Z,101720.79
2019-04-01T22:12:21.659Z,101714.67
2019-04-01T22:14:48.880Z,101711.98
2019-04-01T22:17:17.011Z,101709.71
2019-04-01T22:19:44.545Z,101705.80
2019-04-01T22:22:11.800Z,101702.51
2019-04-01T22:24:39.082Z,101704.90
2019-04-01T22:27:06.305Z,101702.83
2019-04-01T22:29:33.599Z,101698.20
2019-04-01T22:32:00.882Z,101700.82
2019-04-01T22:34:28.099Z,101690.67
2019-04-01T22:36:55.319Z,101687.86
2019-04-01T22:39:27.375Z,101678.91
2019-04-01T22:41:51.727Z,101684.05
2019-04-01T22:44:18.984Z,101679.02
2019-04-01T22:46:47.394Z,101677.11
2019-04-01T22:49:14.716Z,101670.98
2019-04-01T22:51:42.016Z,101671.20
2019-04-01T22:54:09.253Z,101660.97
2019-04-01T22:56:36.503Z,101660.37
2019-04-01T22:59:03.790Z,101661.45
2019-04-01T23:01:31.025Z,101653.02
2019-04-01T23:03:58.252Z,101652.53
2019-04-01T23:06:26.794Z,101647.37
2019-04-01T23:08:54.389Z,101645.47
2019-04-01T23:11:21.618Z,101643.56
2019-04-01T23:13:48.879Z,101636.84
2019-04-01T23:16:16.124Z,101633.52
2019-04-01T23:18:46.328Z,101625.90
2019-04-01T23:21:13.592Z,101627.38
2019-04-01T23:23:40.911Z,101623.27
2019-04-01T23:26:08.156Z,101623.98
2019-04-01T23:28:35.404Z,101623.08
2019-04-01T23:31:02.716Z,101613.42
2019-04-01T23:33:29.966Z,101614.53
2019-04-01T23:35:57.292Z,101607.33
2019-04-01T23:38:24.614Z,101603.48
2019-04-01T23:40:51.873Z,101597.66
2019-04-01T23:43:19.075Z,101592.94
2019-04-01T23:45:46.327Z,101593.34
2019-04-01T23:48:14.066Z,101581.00
2019-04-01T23:50:41.391Z,101581.98
2019-04-01T23:53:08.669Z,101576.95
2019-04-01T23:55:35.936Z,101568.25
2019-04-01T23:58:03.185Z,101565.44
